createdAt,value
2022-11-05T00:02:51.750Z,98555.09
2022-11-05T00:08:24.900Z,98566.25
2022-11-05T00:13:45.429Z,98571.81
2022-11-05T00:19:06.402Z,98571.34
2022-11-05T00:24:28.349Z,98580.31
2022-11-05T00:29:31.357Z,98568.22
2022-11-05T00:34:34.271Z,98573.13
2022-11-05T00:39:38.755Z,98585.00
2022-11-05T00:44:59.014Z,98589.41
2022-11-05T00:50:01.902Z,98589.84
2022-11-05T00:55:06.438Z,98597.69
2022-11-05T01:00:11.326Z,98604.38
2022-11-05T01:05:15.113Z,98617.84
2022-11-05T01:10:19.385Z,98620.44
2022-11-05T01:15:22.722Z,98610.06
2022-11-05T01:20:25.711Z,98612.22
2022-11-05T01:25:30.061Z,98616.38
2022-11-05T01:30:33.166Z,98624.91
2022-11-05T01:35:36.117Z,98637.22
2022-11-05T01:40:43.937Z,98643.47
2022-11-05T01:45:50.197Z,98649.69
2022-11-05T01:50:57.914Z,98665.78
2022-11-05T01:56:06.703Z,98673.94
2022-11-05T02:01:09.830Z,98674.31
2022-11-05T02:06:14.736Z,98684.38
2022-11-05T02:11:20.828Z,98678.31
2022-11-05T02:16:36.709Z,98683.38
2022-11-05T02:21:59.131Z,98680.38
2022-11-05T02:27:15.909Z,98688.47
2022-11-05T02:32:29.339Z,98708.34
2022-11-05T02:37:41.044Z,98707.94
2022-11-05T02:42:49.929Z,98709.13
2022-11-05T02:48:00.161Z,98707.69
2022-11-05T02:53:07.856Z,98706.66
2022-11-05T02:58:11.187Z,98715.19
2022-11-05T03:03:23.830Z,98712.50
2022-11-05T03:08:40.325Z,98722.19
2022-11-05T03:13:53.220Z,98726.03
2022-11-05T03:19:07.834Z,98733.81
2022-11-05T03:24:16.682Z,98738.81
2022-11-05T03:29:24.096Z,98742.63
2022-11-05T03:34:33.184Z,98736.97
2022-11-05T03:39:40.387Z,98743.06
2022-11-05T03:44:47.505Z,98754.31
2022-11-05T03:49:59.334Z,98760.75
2022-11-05T03:55:02.305Z,98761.75
2022-11-05T04:00:08.959Z,98773.66
2022-11-05T04:05:33.277Z,98776.00
2022-11-05T04:11:02.371Z,98785.28
2022-11-05T04:16:23.249Z,98790.91
2022-11-05T04:21:45.092Z,98803.19
2022-11-05T04:26:48.238Z,98809.22
2022-11-05T04:31:51.197Z,98813.31
2022-11-05T04:36:55.446Z,98826.59
2022-11-05T04:41:58.325Z,98836.19
2022-11-05T04:47:01.275Z,98839.22
2022-11-05T04:52:05.705Z,98839.38
2022-11-05T04:57:09.392Z,98832.81
2022-11-05T05:02:12.298Z,98834.84
2022-11-05T05:07:16.669Z,98833.41
2022-11-05T05:12:19.657Z,98851.47
2022-11-05T05:17:23.138Z,98850.88
2022-11-05T05:22:27.424Z,98857.09
2022-11-05T05:27:31.178Z,98865.75
2022-11-05T05:32:34.388Z,98873.00
2022-11-05T05:37:38.691Z,98878.59
2022-11-05T05:42:43.361Z,98888.06
2022-11-05T05:47:46.644Z,98896.50
2022-11-05T05:52:50.901Z,98901.34
2022-11-05T05:57:54.793Z,98901.94
2022-11-05T06:02:58.012Z,98903.94
2022-11-05T06:08:02.350Z,98909.56
2022-11-05T06:13:05.412Z,98899.09
2022-11-05T06:18:09.488Z,98911.63
2022-11-05T06:23:13.868Z,98923.25
2022-11-05T06:28:16.997Z,98924.03
2022-11-05T06:33:19.941Z,98930.31
2022-11-05T06:38:24.288Z,98948.38
2022-11-05T06:43:27.248Z,98963.06
2022-11-05T06:48:30.608Z,98970.50
2022-11-05T06:53:35.746Z,98985.59
2022-11-05T06:58:38.669Z,98992.41
2022-11-05T07:03:41.664Z,98990.41
2022-11-05T07:08:46.089Z,98993.22
2022-11-05T07:13:49.010Z,99012.88
2022-11-05T07:18:53.126Z,99027.22
2022-11-05T07:23:58.170Z,99034.06
2022-11-05T07:29:01.070Z,99050.34
2022-11-05T07:34:04.746Z,99049.13
2022-11-05T07:39:10.216Z,99056.81
2022-11-05T07:44:14.456Z,99065.22
2022-11-05T07:49:17.718Z,99073.69
2022-11-05T07:54:26.391Z,99064.81
2022-11-05T07:59:29.546Z,99085.47
2022-11-05T08:04:32.534Z,99089.13
2022-11-05T08:09:36.846Z,99092.94
2022-11-05T08:14:39.757Z,99094.94
2022-11-05T08:19:42.651Z,99093.75
2022-11-05T08:24:46.933Z,99100.13
2022-11-05T08:29:49.845Z,99103.69
2022-11-05T08:34:52.803Z,99108.16
2022-11-05T08:39:57.171Z,99115.22
2022-11-05T08:45:00.104Z,99123.16
2022-11-05T08:50:03.123Z,99131.50
2022-11-05T08:55:08.306Z,99138.50
2022-11-05T09:00:12.387Z,99143.00
2022-11-05T09:05:15.315Z,99134.41
2022-11-05T09:10:19.678Z,99135.69
2022-11-05T09:15:23.315Z,99138.28
2022-11-05T09:20:26.493Z,99138.44
2022-11-05T09:25:30.803Z,99140.94
2022-11-05T09:30:33.742Z,99149.47
2022-11-05T09:35:39.547Z,99146.31
2022-11-05T09:40:53.207Z,99156.63
2022-11-05T09:45:59.249Z,99156.50
2022-11-05T09:51:02.254Z,99162.19
2022-11-05T09:56:16.490Z,99165.31
2022-11-05T10:01:24.375Z,99160.09
2022-11-05T10:06:28.894Z,99171.78
2022-11-05T10:11:38.897Z,99172.09
2022-11-05T10:16:44.717Z,99178.00
2022-11-05T10:27:17.581Z,99190.09
2022-11-05T10:32:28.963Z,99192.56
2022-11-05T10:37:37.002Z,99192.97
2022-11-05T10:42:53.371Z,99191.69
2022-11-05T10:48:21.290Z,99193.81
2022-11-05T10:53:28.650Z,99194.00
2022-11-05T10:58:35.443Z,99200.75
2022-11-05T11:03:45.566Z,99198.66
2022-11-05T11:08:49.803Z,99196.66
2022-11-05T11:14:02.548Z,99195.94
2022-11-05T11:19:21.981Z,99205.34
2022-11-05T11:24:27.564Z,99209.75
2022-11-05T11:29:41.134Z,99212.22
2022-11-05T11:34:47.715Z,99213.84
2022-11-05T11:39:55.537Z,99214.69
2022-11-05T11:45:02.963Z,99216.09
2022-11-05T11:50:06.213Z,99220.75
2022-11-05T11:55:21.303Z,99223.69
2022-11-05T12:00:26.935Z,99219.50
2022-11-05T12:05:37.317Z,99225.38
2022-11-05T12:10:52.526Z,99219.94
2022-11-05T12:15:59.077Z,99212.56
2022-11-05T12:21:14.584Z,99215.28
2022-11-05T12:26:27.804Z,99210.69
2022-11-05T12:31:40.154Z,99214.34
2022-11-05T12:36:59.066Z,99219.59
2022-11-05T12:42:03.838Z,99218.38
2022-11-05T12:47:22.349Z,99232.97
2022-11-05T12:53:06.567Z,99232.38
2022-11-05T12:58:13.607Z,99237.38
2022-11-05T13:03:27.361Z,99229.28
2022-11-05T13:08:38.999Z,99226.72
2022-11-05T13:13:47.854Z,99232.41
2022-11-05T13:18:55.921Z,99231.34
2022-11-05T13:24:06.942Z,99238.00
2022-11-05T13:29:15.130Z,99248.81
2022-11-05T13:34:19.509Z,99253.06
2022-11-05T13:39:26.800Z,99254.41
2022-11-05T13:45:04.449Z,99258.53
2022-11-05T13:50:29.240Z,99270.91
2022-11-05T13:55:49.779Z,99274.41
2022-11-05T14:01:07.068Z,99274.09
2022-11-05T14:06:12.157Z,99292.16
2022-11-05T14:11:22.969Z,99286.97
2022-11-05T14:16:29.545Z,99285.28
2022-11-05T14:21:48.393Z,99271.19
2022-11-05T14:27:24.698Z,99281.81
2022-11-05T14:32:43.418Z,99275.53
2022-11-05T14:37:55.095Z,99280.41
2022-11-05T14:43:02.319Z,99290.97
2022-11-05T14:48:08.128Z,99292.25
2022-11-05T14:53:27.779Z,99294.97
2022-11-05T14:58:36.524Z,99295.00
2022-11-05T15:04:19.380Z,99314.97
2022-11-05T15:09:34.427Z,99312.16
2022-11-05T15:14:42.388Z,99317.19
2022-11-05T15:19:46.856Z,99320.22
2022-11-05T15:24:51.365Z,99325.41
2022-11-05T15:29:54.775Z,99333.59
2022-11-05T15:34:57.835Z,99338.13
2022-11-05T15:40:02.246Z,99341.94
2022-11-05T15:45:05.955Z,99337.03
2022-11-05T15:50:15.465Z,99343.81
2022-11-05T15:55:23.734Z,99334.75
2022-11-05T16:00:28.288Z,99349.94
2022-11-05T16:05:34.794Z,99335.09
2022-11-05T16:10:40.270Z,99350.19
2022-11-05T16:15:54.554Z,99363.88
2022-11-05T16:21:02.422Z,99354.56
2022-11-05T16:26:07.078Z,99361.09
2022-11-05T16:31:10.010Z,99374.31
2022-11-05T16:36:13.854Z,99372.06
2022-11-05T16:41:20.439Z,99373.75
2022-11-05T16:46:25.229Z,99380.94
2022-11-05T16:51:29.147Z,99378.25
2022-11-05T16:56:34.471Z,99384.28
2022-11-05T17:01:40.478Z,99387.81
2022-11-05T17:06:46.619Z,99382.41
2022-11-05T17:11:50.868Z,99388.63
2022-11-05T17:16:53.926Z,99392.41
2022-11-05T17:21:57.038Z,99397.16
2022-11-05T17:27:01.297Z,99405.66
2022-11-05T17:32:06.394Z,99406.47
2022-11-05T17:37:09.295Z,99413.38
2022-11-05T17:42:13.618Z,99419.59
2022-11-05T17:47:16.515Z,99419.44
2022-11-05T17:52:19.469Z,99433.00
2022-11-05T17:57:23.848Z,99437.16
2022-11-05T18:02:29.461Z,99433.31
2022-11-05T18:07:32.598Z,99441.66
2022-11-05T18:12:37.323Z,99442.22
2022-11-05T18:17:40.272Z,99443.88
2022-11-05T18:22:43.927Z,99450.50
2022-11-05T18:27:48.288Z,99461.19
2022-11-05T18:32:51.286Z,99460.09
2022-11-05T18:37:54.174Z,99463.56
2022-11-05T18:42:58.437Z,99468.53
2022-11-05T18:48:01.894Z,99472.50
2022-11-05T18:53:04.800Z,99473.28
2022-11-05T18:58:09.788Z,99477.56
2022-11-05T19:03:12.753Z,99478.09
2022-11-05T19:08:15.688Z,99480.16
2022-11-05T19:13:20.333Z,99472.44
2022-11-05T19:18:23.244Z,99461.53
2022-11-05T19:23:26.160Z,99473.09
2022-11-05T19:28:30.458Z,99473.66
2022-11-05T19:33:33.822Z,99478.72
2022-11-05T19:38:36.876Z,99469.06
2022-11-05T19:43:42.689Z,99476.44
2022-11-05T19:48:46.891Z,99479.81
2022-11-05T19:53:51.458Z,99486.06
2022-11-05T19:58:55.852Z,99487.97
2022-11-05T20:04:00.238Z,99487.69
2022-11-05T20:09:22.882Z,99489.63
2022-11-05T20:14:27.851Z,99491.91
2022-11-05T20:19:30.832Z,99488.50
2022-11-05T20:24:33.799Z,99495.34
2022-11-05T20:29:38.239Z,99507.72
2022-11-05T20:34:41.598Z,99520.72
2022-11-05T20:39:44.506Z,99510.13
2022-11-05T20:44:48.821Z,99518.13
2022-11-05T20:49:51.780Z,99526.44
2022-11-05T20:54:54.923Z,99523.00
2022-11-05T20:59:59.229Z,99521.06
2022-11-05T21:05:02.299Z,99521.22
2022-11-05T21:10:05.973Z,99514.38
2022-11-05T21:15:11.735Z,99507.91
2022-11-05T21:20:14.655Z,99502.88
2022-11-05T21:25:17.562Z,99516.03
2022-11-05T21:30:21.909Z,99514.56
2022-11-05T21:35:24.864Z,99513.09
2022-11-05T21:40:27.907Z,99525.75
2022-11-05T21:45:32.515Z,99521.53
2022-11-05T21:50:53.389Z,99522.88
2022-11-05T21:56:14.105Z,99523.00
2022-11-05T22:01:18.583Z,99521.19
2022-11-05T22:06:21.651Z,99521.19
2022-11-05T22:11:24.547Z,99515.69
2022-11-05T22:16:28.864Z,99517.19
2022-11-05T22:21:31.770Z,99507.19
2022-11-05T22:26:35.344Z,99503.41
2022-11-05T22:31:39.880Z,99498.19
2022-11-05T22:36:42.815Z,99501.13
2022-11-05T22:41:46.130Z,99504.69
2022-11-05T22:46:50.513Z,99498.31
2022-11-05T22:51:53.420Z,99496.97
2022-11-05T22:56:56.363Z,99491.91
2022-11-05T23:02:04.034Z,99488.88
2022-11-05T23:07:31.275Z,99491.81
2022-11-05T23:12:37.786Z,99497.41
2022-11-05T23:17:59.438Z,99502.56
2022-11-05T23:23:34.462Z,99505.31
2022-11-05T23:28:37.400Z,99504.97
2022-11-05T23:33:41.678Z,99504.50
2022-11-05T23:38:44.608Z,99509.69
2022-11-05T23:44:19.648Z,99497.97
2022-11-05T23:49:24.427Z,99509.47
2022-11-05T23:54:27.344Z,99500.63
2022-11-05T23:59:30.259Z,99503.97
